sensor_id;sensor_type;location;lat;lon;timestamp;P1;durP1;ratioP1;P2;durP2;ratioP2
635;SDS011;302;50.206;8.196;2024-02-15T00:02:11;5.38;;;4.55;;
635;SDS011;302;50.206;8.196;2024-02-15T00:04:55;4.97;;;3.40;;
635;SDS011;302;50.206;8.196;2024-02-15T00:07:40;6.70;;;4.10;;
635;SDS011;302;50.206;8.196;2024-02-15T00:10:24;4.65;;;4.05;;
635;SDS011;302;50.206;8.196;2024-02-15T00:13:08;5.60;;;4.32;;
635;SDS011;302;50.206;8.196;2024-02-15T00:15:52;5.65;;;3.95;;
635;SDS011;302;50.206;8.196;2024-02-15T00:18:36;4.90;;;4.20;;
635;SDS011;302;50.206;8.196;2024-02-15T00:21:20;5.63;;;4.07;;
635;SDS011;302;50.206;8.196;2024-02-15T00:24:05;4.70;;;4.13;;
635;SDS011;302;50.206;8.196;2024-02-15T00:26:49;7.28;;;4.38;;
635;SDS011;302;50.206;8.196;2024-02-15T00:29:33;4.97;;;4.40;;
635;SDS011;302;50.206;8.196;2024-02-15T00:32:17;6.15;;;4.95;;
635;SDS011;302;50.206;8.196;2024-02-15T00:35:02;6.05;;;4.95;;
635;SDS011;302;50.206;8.196;2024-02-15T00:37:45;4.50;;;4.10;;
635;SDS011;302;50.206;8.196;2024-02-15T00:40:29;4.93;;;4.43;;
635;SDS011;302;50.206;8.196;2024-02-15T00:43:13;5.47;;;4.57;;
635;SDS011;302;50.206;8.196;2024-02-15T00:45:57;7.22;;;4.88;;
635;SDS011;302;50.206;8.196;2024-02-15T00:48:41;7.03;;;4.63;;
635;SDS011;302;50.206;8.196;2024-02-15T00:51:25;4.82;;;4.38;;
635;SDS011;302;50.206;8.196;2024-02-15T00:54:09;4.85;;;4.00;;
635;SDS011;302;50.206;8.196;2024-02-15T00:56:53;5.38;;;4.03;;
635;SDS011;302;50.206;8.196;2024-02-15T00:59:37;4.68;;;3.78;;
635;SDS011;302;50.206;8.196;2024-02-15T01:02:21;5.40;;;4.15;;
635;SDS011;302;50.206;8.196;2024-02-15T01:05:07;4.65;;;4.15;;
635;SDS011;302;50.206;8.196;2024-02-15T01:07:51;4.05;;;3.65;;
635;SDS011;302;50.206;8.196;2024-02-15T01:10:35;4.78;;;4.35;;
635;SDS011;302;50.206;8.196;2024-02-15T01:13:20;6.97;;;4.03;;
635;SDS011;302;50.206;8.196;2024-02-15T01:16:04;5.30;;;3.78;;
635;SDS011;302;50.206;8.196;2024-02-15T01:18:48;4.30;;;3.90;;
635;SDS011;302;50.206;8.196;2024-02-15T01:21:32;6.22;;;4.43;;
635;SDS011;302;50.206;8.196;2024-02-15T01:24:16;4.75;;;4.22;;
635;SDS011;302;50.206;8.196;2024-02-15T01:27:00;4.65;;;3.70;;
635;SDS011;302;50.206;8.196;2024-02-15T01:29:45;6.55;;;3.85;;
635;SDS011;302;50.206;8.196;2024-02-15T01:32:28;6.13;;;4.22;;
635;SDS011;302;50.206;8.196;2024-02-15T01:35:13;4.93;;;4.30;;
635;SDS011;302;50.206;8.196;2024-02-15T01:37:57;6.45;;;3.55;;
635;SDS011;302;50.206;8.196;2024-02-15T01:40:41;6.10;;;4.10;;
635;SDS011;302;50.206;8.196;2024-02-15T01:43:26;9.00;;;4.30;;
635;SDS011;302;50.206;8.196;2024-02-15T01:46:10;5.28;;;4.60;;
635;SDS011;302;50.206;8.196;2024-02-15T01:48:53;6.05;;;3.90;;
635;SDS011;302;50.206;8.196;2024-02-15T01:51:39;5.35;;;4.85;;
635;SDS011;302;50.206;8.196;2024-02-15T01:54:24;6.72;;;4.00;;
635;SDS011;302;50.206;8.196;2024-02-15T01:57:08;10.52;;;4.60;;
635;SDS011;302;50.206;8.196;2024-02-15T01:59:52;4.70;;;4.20;;
635;SDS011;302;50.206;8.196;2024-02-15T02:02:36;5.75;;;3.40;;
635;SDS011;302;50.206;8.196;2024-02-15T02:05:21;8.50;;;4.82;;
635;SDS011;302;50.206;8.196;2024-02-15T02:08:05;6.95;;;3.88;;
635;SDS011;302;50.206;8.196;2024-02-15T02:10:53;7.78;;;4.65;;
635;SDS011;302;50.206;8.196;2024-02-15T02:13:36;6.50;;;4.00;;
635;SDS011;302;50.206;8.196;2024-02-15T02:16:30;4.78;;;4.30;;
635;SDS011;302;50.206;8.196;2024-02-15T02:19:19;4.80;;;3.75;;
635;SDS011;302;50.206;8.196;2024-02-15T02:22:03;5.05;;;4.55;;
635;SDS011;302;50.206;8.196;2024-02-15T02:27:39;7.40;;;3.80;;
635;SDS011;302;50.206;8.196;2024-02-15T02:30:23;4.15;;;3.33;;
635;SDS011;302;50.206;8.196;2024-02-15T02:33:10;4.95;;;3.25;;
635;SDS011;302;50.206;8.196;2024-02-15T02:35:54;5.30;;;3.45;;
635;SDS011;302;50.206;8.196;2024-02-15T02:38:41;4.38;;;4.00;;
635;SDS011;302;50.206;8.196;2024-02-15T02:41:25;5.32;;;3.72;;
635;SDS011;302;50.206;8.196;2024-02-15T02:44:09;3.65;;;3.35;;
635;SDS011;302;50.206;8.196;2024-02-15T02:46:53;5.05;;;3.35;;
635;SDS011;302;50.206;8.196;2024-02-15T02:49:37;3.50;;;3.20;;
635;SDS011;302;50.206;8.196;2024-02-15T02:52:20;5.07;;;3.10;;
635;SDS011;302;50.206;8.196;2024-02-15T02:55:05;5.03;;;3.72;;
635;SDS011;302;50.206;8.196;2024-02-15T02:57:51;3.40;;;3.10;;
635;SDS011;302;50.206;8.196;2024-02-15T03:00:37;4.43;;;3.55;;
635;SDS011;302;50.206;8.196;2024-02-15T03:03:21;4.32;;;3.13;;
635;SDS011;302;50.206;8.196;2024-02-15T03:06:08;5.05;;;3.55;;
635;SDS011;302;50.206;8.196;2024-02-15T03:08:52;3.45;;;3.15;;
635;SDS011;302;50.206;8.196;2024-02-15T03:11:37;3.33;;;3.03;;
635;SDS011;302;50.206;8.196;2024-02-15T03:14:21;3.65;;;3.35;;
635;SDS011;302;50.206;8.196;2024-02-15T03:17:06;3.03;;;2.70;;
635;SDS011;302;50.206;8.196;2024-02-15T03:19:49;3.92;;;3.10;;
635;SDS011;302;50.206;8.196;2024-02-15T03:22:33;6.38;;;3.10;;
635;SDS011;302;50.206;8.196;2024-02-15T03:25:18;8.35;;;3.20;;
635;SDS011;302;50.206;8.196;2024-02-15T03:28:02;5.10;;;4.05;;
635;SDS011;302;50.206;8.196;2024-02-15T03:30:49;5.45;;;3.97;;
635;SDS011;302;50.206;8.196;2024-02-15T03:33:34;5.57;;;3.60;;
635;SDS011;302;50.206;8.196;2024-02-15T03:36:18;4.05;;;3.50;;
635;SDS011;302;50.206;8.196;2024-02-15T03:39:03;5.38;;;3.60;;
635;SDS011;302;50.206;8.196;2024-02-15T03:41:50;4.60;;;3.60;;
635;SDS011;302;50.206;8.196;2024-02-15T03:44:34;3.65;;;3.05;;
635;SDS011;302;50.206;8.196;2024-02-15T03:47:18;4.50;;;3.40;;
635;SDS011;302;50.206;8.196;2024-02-15T03:50:03;5.78;;;3.90;;
635;SDS011;302;50.206;8.196;2024-02-15T03:52:47;3.90;;;3.60;;
635;SDS011;302;50.206;8.196;2024-02-15T03:55:31;3.30;;;3.00;;
635;SDS011;302;50.206;8.196;2024-02-15T03:58:16;4.85;;;3.25;;
635;SDS011;302;50.206;8.196;2024-02-15T04:01:01;3.58;;;3.13;;
635;SDS011;302;50.206;8.196;2024-02-15T04:03:45;5.82;;;3.75;;
635;SDS011;302;50.206;8.196;2024-02-15T04:06:31;5.05;;;2.95;;
635;SDS011;302;50.206;8.196;2024-02-15T04:09:17;7.32;;;3.20;;
635;SDS011;302;50.206;8.196;2024-02-15T04:12:01;4.05;;;3.33;;
635;SDS011;302;50.206;8.196;2024-02-15T04:14:46;5.93;;;3.60;;
635;SDS011;302;50.206;8.196;2024-02-15T04:17:31;6.25;;;3.00;;
635;SDS011;302;50.206;8.196;2024-02-15T04:20:18;6.82;;;4.13;;
635;SDS011;302;50.206;8.196;2024-02-15T04:23:02;6.15;;;3.75;;
635;SDS011;302;50.206;8.196;2024-02-15T04:25:46;5.25;;;3.80;;
635;SDS011;302;50.206;8.196;2024-02-15T04:28:34;6.38;;;3.95;;
635;SDS011;302;50.206;8.196;2024-02-15T04:31:18;4.88;;;4.10;;
635;SDS011;302;50.206;8.196;2024-02-15T04:34:02;3.75;;;3.35;;
635;SDS011;302;50.206;8.196;2024-02-15T04:36:47;4.43;;;3.50;;
635;SDS011;302;50.206;8.196;2024-02-15T04:39:34;4.85;;;3.13;;
635;SDS011;302;50.206;8.196;2024-02-15T04:42:19;5.80;;;2.83;;
635;SDS011;302;50.206;8.196;2024-02-15T04:45:04;3.95;;;3.33;;
635;SDS011;302;50.206;8.196;2024-02-15T04:47:49;4.15;;;3.75;;
635;SDS011;302;50.206;8.196;2024-02-15T04:50:36;4.70;;;3.83;;
635;SDS011;302;50.206;8.196;2024-02-15T04:53:20;4.47;;;3.60;;
635;SDS011;302;50.206;8.196;2024-02-15T04:56:05;7.15;;;3.78;;
635;SDS011;302;50.206;8.196;2024-02-15T04:58:55;6.88;;;3.13;;
635;SDS011;302;50.206;8.196;2024-02-15T05:01:39;3.63;;;3.17;;
635;SDS011;302;50.206;8.196;2024-02-15T05:04:24;4.72;;;3.60;;
635;SDS011;302;50.206;8.196;2024-02-15T05:07:08;4.10;;;3.45;;
635;SDS011;302;50.206;8.196;2024-02-15T05:09:52;4.38;;;3.67;;
635;SDS011;302;50.206;8.196;2024-02-15T05:12:39;6.15;;;4.28;;
635;SDS011;302;50.206;8.196;2024-02-15T05:15:26;4.32;;;3.60;;
635;SDS011;302;50.206;8.196;2024-02-15T05:18:10;4.40;;;3.97;;
635;SDS011;302;50.206;8.196;2024-02-15T05:20:54;5.82;;;4.55;;
635;SDS011;302;50.206;8.196;2024-02-15T05:23:38;4.97;;;4.30;;
635;SDS011;302;50.206;8.196;2024-02-15T05:26:23;4.30;;;3.90;;
635;SDS011;302;50.206;8.196;2024-02-15T05:29:08;8.45;;;4.72;;
635;SDS011;302;50.206;8.196;2024-02-15T05:31:52;4.53;;;4.13;;
635;SDS011;302;50.206;8.196;2024-02-15T05:34:38;5.82;;;4.35;;
635;SDS011;302;50.206;8.196;2024-02-15T05:37:23;3.67;;;3.35;;
635;SDS011;302;50.206;8.196;2024-02-15T05:40:07;6.15;;;4.05;;
635;SDS011;302;50.206;8.196;2024-02-15T05:42:55;7.15;;;4.40;;
635;SDS011;302;50.206;8.196;2024-02-15T05:45:40;5.60;;;4.50;;
635;SDS011;302;50.206;8.196;2024-02-15T05:48:24;7.80;;;5.90;;
635;SDS011;302;50.206;8.196;2024-02-15T05:51:08;6.03;;;5.40;;
635;SDS011;302;50.206;8.196;2024-02-15T05:53:52;8.07;;;5.90;;
635;SDS011;302;50.206;8.196;2024-02-15T05:56:42;6.90;;;5.05;;
635;SDS011;302;50.206;8.196;2024-02-15T05:59:26;8.18;;;5.55;;
635;SDS011;302;50.206;8.196;2024-02-15T06:02:10;7.00;;;5.40;;
635;SDS011;302;50.206;8.196;2024-02-15T06:04:54;6.85;;;5.88;;
635;SDS011;302;50.206;8.196;2024-02-15T06:07:38;9.45;;;6.70;;
635;SDS011;302;50.206;8.196;2024-02-15T06:10:23;11.02;;;7.70;;
635;SDS011;302;50.206;8.196;2024-02-15T06:13:07;11.60;;;8.57;;
635;SDS011;302;50.206;8.196;2024-02-15T06:15:54;9.20;;;7.80;;
635;SDS011;302;50.206;8.196;2024-02-15T06:18:38;11.77;;;8.48;;
635;SDS011;302;50.206;8.196;2024-02-15T06:21:22;9.80;;;7.10;;
635;SDS011;302;50.206;8.196;2024-02-15T06:24:07;10.10;;;7.40;;
635;SDS011;302;50.206;8.196;2024-02-15T06:26:51;10.73;;;8.00;;
635;SDS011;302;50.206;8.196;2024-02-15T06:29:37;8.00;;;7.20;;
635;SDS011;302;50.206;8.196;2024-02-15T06:32:40;9.43;;;7.88;;
635;SDS011;302;50.206;8.196;2024-02-15T06:35:43;10.73;;;8.18;;
635;SDS011;302;50.206;8.196;2024-02-15T06:38:46;8.30;;;6.70;;
635;SDS011;302;50.206;8.196;2024-02-15T06:41:49;7.80;;;7.05;;
635;SDS011;302;50.206;8.196;2024-02-15T06:44:33;9.48;;;8.52;;
635;SDS011;302;50.206;8.196;2024-02-15T06:47:17;11.98;;;8.63;;
635;SDS011;302;50.206;8.196;2024-02-15T06:50:02;13.05;;;9.23;;
635;SDS011;302;50.206;8.196;2024-02-15T06:52:46;12.07;;;9.23;;
635;SDS011;302;50.206;8.196;2024-02-15T06:55:33;10.27;;;9.00;;
635;SDS011;302;50.206;8.196;2024-02-15T06:58:17;12.50;;;10.73;;
635;SDS011;302;50.206;8.196;2024-02-15T07:01:01;13.20;;;11.20;;
635;SDS011;302;50.206;8.196;2024-02-15T07:03:45;14.65;;;10.70;;
635;SDS011;302;50.206;8.196;2024-02-15T07:06:29;11.52;;;10.13;;
635;SDS011;302;50.206;8.196;2024-02-15T07:09:15;12.95;;;10.50;;
635;SDS011;302;50.206;8.196;2024-02-15T07:11:59;15.13;;;10.30;;
635;SDS011;302;50.206;8.196;2024-02-15T07:14:44;15.55;;;10.73;;
635;SDS011;302;50.206;8.196;2024-02-15T07:17:28;12.95;;;10.88;;
635;SDS011;302;50.206;8.196;2024-02-15T07:20:13;12.82;;;9.90;;
635;SDS011;302;50.206;8.196;2024-02-15T07:23:00;12.00;;;10.13;;
635;SDS011;302;50.206;8.196;2024-02-15T07:25:44;13.73;;;10.60;;
635;SDS011;302;50.206;8.196;2024-02-15T07:28:32;14.13;;;9.88;;
635;SDS011;302;50.206;8.196;2024-02-15T07:31:16;12.05;;;10.00;;
635;SDS011;302;50.206;8.196;2024-02-15T07:34:00;14.57;;;11.05;;
635;SDS011;302;50.206;8.196;2024-02-15T07:36:44;12.02;;;10.10;;
635;SDS011;302;50.206;8.196;2024-02-15T07:39:29;14.15;;;10.38;;
635;SDS011;302;50.206;8.196;2024-02-15T07:42:13;13.50;;;10.40;;
635;SDS011;302;50.206;8.196;2024-02-15T07:44:57;10.80;;;9.70;;
635;SDS011;302;50.206;8.196;2024-02-15T07:47:41;13.10;;;10.32;;
635;SDS011;302;50.206;8.196;2024-02-15T07:50:25;13.70;;;10.00;;
635;SDS011;302;50.206;8.196;2024-02-15T07:53:09;10.57;;;8.88;;
635;SDS011;302;50.206;8.196;2024-02-15T07:55:54;9.80;;;8.77;;
635;SDS011;302;50.206;8.196;2024-02-15T07:58:38;12.82;;;8.93;;
635;SDS011;302;50.206;8.196;2024-02-15T08:01:23;12.00;;;8.20;;
635;SDS011;302;50.206;8.196;2024-02-15T08:04:06;10.07;;;8.45;;
635;SDS011;302;50.206;8.196;2024-02-15T08:06:52;8.00;;;7.10;;
635;SDS011;302;50.206;8.196;2024-02-15T08:09:38;9.80;;;7.82;;
635;SDS011;302;50.206;8.196;2024-02-15T08:12:22;10.75;;;8.20;;
635;SDS011;302;50.206;8.196;2024-02-15T08:15:07;8.85;;;7.20;;
635;SDS011;302;50.206;8.196;2024-02-15T08:17:55;8.98;;;7.65;;
635;SDS011;302;50.206;8.196;2024-02-15T08:20:39;8.40;;;6.63;;
635;SDS011;302;50.206;8.196;2024-02-15T08:23:24;8.10;;;7.30;;
635;SDS011;302;50.206;8.196;2024-02-15T08:26:08;9.48;;;7.80;;
635;SDS011;302;50.206;8.196;2024-02-15T08:28:54;7.30;;;6.20;;
635;SDS011;302;50.206;8.196;2024-02-15T08:31:39;7.70;;;6.38;;
635;SDS011;302;50.206;8.196;2024-02-15T08:34:24;7.82;;;7.05;;
635;SDS011;302;50.206;8.196;2024-02-15T08:37:08;7.10;;;6.40;;
635;SDS011;302;50.206;8.196;2024-02-15T08:39:52;7.38;;;6.35;;
635;SDS011;302;50.206;8.196;2024-02-15T08:42:40;7.05;;;6.32;;
635;SDS011;302;50.206;8.196;2024-02-15T08:45:24;9.52;;;6.32;;
635;SDS011;302;50.206;8.196;2024-02-15T08:48:08;7.97;;;6.50;;
635;SDS011;302;50.206;8.196;2024-02-15T08:50:52;9.80;;;7.60;;
635;SDS011;302;50.206;8.196;2024-02-15T08:53:36;6.40;;;5.32;;
635;SDS011;302;50.206;8.196;2024-02-15T08:56:20;4.78;;;4.38;;
635;SDS011;302;50.206;8.196;2024-02-15T08:59:04;5.30;;;4.80;;
635;SDS011;302;50.206;8.196;2024-02-15T09:01:49;9.02;;;5.20;;
635;SDS011;302;50.206;8.196;2024-02-15T09:04:33;5.85;;;5.28;;
635;SDS011;302;50.206;8.196;2024-02-15T09:07:17;8.48;;;5.32;;
635;SDS011;302;50.206;8.196;2024-02-15T09:10:02;5.38;;;4.90;;
635;SDS011;302;50.206;8.196;2024-02-15T09:12:46;6.80;;;5.30;;
635;SDS011;302;50.206;8.196;2024-02-15T09:15:33;6.05;;;5.45;;
635;SDS011;302;50.206;8.196;2024-02-15T09:18:17;6.68;;;6.07;;
635;SDS011;302;50.206;8.196;2024-02-15T09:21:06;6.28;;;5.50;;
635;SDS011;302;50.206;8.196;2024-02-15T09:23:50;5.90;;;5.40;;
635;SDS011;302;50.206;8.196;2024-02-15T09:26:34;6.15;;;5.18;;
635;SDS011;302;50.206;8.196;2024-02-15T09:29:18;6.05;;;5.20;;
635;SDS011;302;50.206;8.196;2024-02-15T09:32:03;6.60;;;5.07;;
635;SDS011;302;50.206;8.196;2024-02-15T09:34:48;6.40;;;5.78;;
635;SDS011;302;50.206;8.196;2024-02-15T09:37:33;6.13;;;4.70;;
635;SDS011;302;50.206;8.196;2024-02-15T09:40:16;5.30;;;4.80;;
635;SDS011;302;50.206;8.196;2024-02-15T09:43:01;5.25;;;4.75;;
635;SDS011;302;50.206;8.196;2024-02-15T09:45:46;7.53;;;4.97;;
635;SDS011;302;50.206;8.196;2024-02-15T09:48:30;5.25;;;4.75;;
635;SDS011;302;50.206;8.196;2024-02-15T09:51:15;6.65;;;4.20;;
635;SDS011;302;50.206;8.196;2024-02-15T09:54:00;5.65;;;4.30;;
635;SDS011;302;50.206;8.196;2024-02-15T09:56:44;5.05;;;4.65;;
635;SDS011;302;50.206;8.196;2024-02-15T09:59:28;5.00;;;4.32;;
635;SDS011;302;50.206;8.196;2024-02-15T10:02:12;4.75;;;4.32;;
635;SDS011;302;50.206;8.196;2024-02-15T10:04:57;4.97;;;4.25;;
635;SDS011;302;50.206;8.196;2024-02-15T10:07:43;4.25;;;3.85;;
635;SDS011;302;50.206;8.196;2024-02-15T10:10:29;5.82;;;4.40;;
635;SDS011;302;50.206;8.196;2024-02-15T10:13:15;3.85;;;3.55;;
635;SDS011;302;50.206;8.196;2024-02-15T10:15:59;5.93;;;4.25;;
635;SDS011;302;50.206;8.196;2024-02-15T10:18:43;4.47;;;3.88;;
635;SDS011;302;50.206;8.196;2024-02-15T10:21:27;5.43;;;4.25;;
635;SDS011;302;50.206;8.196;2024-02-15T10:24:18;5.38;;;4.30;;
635;SDS011;302;50.206;8.196;2024-02-15T10:27:03;4.90;;;4.40;;
635;SDS011;302;50.206;8.196;2024-02-15T10:29:47;5.18;;;3.95;;
635;SDS011;302;50.206;8.196;2024-02-15T10:32:35;5.15;;;4.70;;
635;SDS011;302;50.206;8.196;2024-02-15T10:35:20;6.65;;;3.95;;
635;SDS011;302;50.206;8.196;2024-02-15T10:38:07;4.03;;;3.72;;
635;SDS011;302;50.206;8.196;2024-02-15T10:40:52;4.07;;;3.67;;
635;SDS011;302;50.206;8.196;2024-02-15T10:43:45;4.40;;;4.00;;
635;SDS011;302;50.206;8.196;2024-02-15T10:46:31;4.18;;;3.70;;
635;SDS011;302;50.206;8.196;2024-02-15T10:49:16;3.67;;;3.38;;
635;SDS011;302;50.206;8.196;2024-02-15T10:52:01;5.75;;;3.67;;
635;SDS011;302;50.206;8.196;2024-02-15T10:57:32;3.42;;;3.10;;
635;SDS011;302;50.206;8.196;2024-02-15T11:00:17;4.40;;;3.65;;
635;SDS011;302;50.206;8.196;2024-02-15T11:03:08;4.22;;;3.83;;
635;SDS011;302;50.206;8.196;2024-02-15T11:05:51;3.20;;;2.58;;
635;SDS011;302;50.206;8.196;2024-02-15T11:08:36;4.75;;;3.25;;
635;SDS011;302;50.206;8.196;2024-02-15T11:11:21;4.88;;;3.30;;
635;SDS011;302;50.206;8.196;2024-02-15T11:14:26;5.05;;;3.55;;
635;SDS011;302;50.206;8.196;2024-02-15T11:17:10;3.80;;;3.50;;
635;SDS011;302;50.206;8.196;2024-02-15T11:19:57;3.95;;;3.40;;
635;SDS011;302;50.206;8.196;2024-02-15T11:22:40;4.18;;;3.75;;
635;SDS011;302;50.206;8.196;2024-02-15T11:25:36;3.65;;;3.13;;
635;SDS011;302;50.206;8.196;2024-02-15T11:31:07;3.70;;;3.00;;
635;SDS011;302;50.206;8.196;2024-02-15T11:33:52;4.22;;;3.15;;
635;SDS011;302;50.206;8.196;2024-02-15T11:36:36;4.03;;;3.08;;
635;SDS011;302;50.206;8.196;2024-02-15T11:39:39;5.22;;;3.28;;
635;SDS011;302;50.206;8.196;2024-02-15T11:42:29;3.15;;;2.88;;
635;SDS011;302;50.206;8.196;2024-02-15T11:45:13;3.70;;;3.40;;
635;SDS011;302;50.206;8.196;2024-02-15T11:47:59;4.38;;;3.28;;
635;SDS011;302;50.206;8.196;2024-02-15T11:50:43;5.47;;;4.32;;
635;SDS011;302;50.206;8.196;2024-02-15T11:53:28;5.50;;;3.65;;
635;SDS011;302;50.206;8.196;2024-02-15T11:56:13;4.15;;;3.85;;
635;SDS011;302;50.206;8.196;2024-02-15T11:59:03;4.85;;;3.20;;
635;SDS011;302;50.206;8.196;2024-02-15T12:01:49;5.80;;;3.30;;
635;SDS011;302;50.206;8.196;2024-02-15T12:04:51;3.05;;;2.85;;
635;SDS011;302;50.206;8.196;2024-02-15T12:07:55;3.15;;;2.85;;
635;SDS011;302;50.206;8.196;2024-02-15T12:10:58;4.38;;;3.17;;
635;SDS011;302;50.206;8.196;2024-02-15T12:14:01;2.95;;;2.55;;
635;SDS011;302;50.206;8.196;2024-02-15T12:17:05;3.05;;;2.75;;
635;SDS011;302;50.206;8.196;2024-02-15T12:20:07;4.30;;;3.08;;
635;SDS011;302;50.206;8.196;2024-02-15T12:22:54;3.17;;;2.60;;
635;SDS011;302;50.206;8.196;2024-02-15T12:25:38;4.50;;;3.53;;
635;SDS011;302;50.206;8.196;2024-02-15T12:28:22;3.00;;;2.70;;
635;SDS011;302;50.206;8.196;2024-02-15T12:31:06;4.00;;;3.63;;
635;SDS011;302;50.206;8.196;2024-02-15T12:34:02;3.67;;;3.35;;
635;SDS011;302;50.206;8.196;2024-02-15T12:36:49;3.53;;;3.20;;
635;SDS011;302;50.206;8.196;2024-02-15T12:39:34;3.90;;;3.50;;
635;SDS011;302;50.206;8.196;2024-02-15T12:42:17;3.85;;;3.28;;
635;SDS011;302;50.206;8.196;2024-02-15T12:45:03;4.57;;;3.20;;
635;SDS011;302;50.206;8.196;2024-02-15T12:47:51;3.30;;;3.00;;
635;SDS011;302;50.206;8.196;2024-02-15T12:50:35;3.30;;;2.65;;
635;SDS011;302;50.206;8.196;2024-02-15T12:53:22;4.60;;;3.08;;
635;SDS011;302;50.206;8.196;2024-02-15T12:56:06;4.90;;;2.80;;
635;SDS011;302;50.206;8.196;2024-02-15T12:58:50;3.42;;;2.88;;
635;SDS011;302;50.206;8.196;2024-02-15T13:01:34;2.92;;;2.60;;
635;SDS011;302;50.206;8.196;2024-02-15T13:04:24;6.22;;;2.95;;
635;SDS011;302;50.206;8.196;2024-02-15T13:07:12;3.92;;;2.20;;
635;SDS011;302;50.206;8.196;2024-02-15T13:09:57;3.38;;;2.33;;
635;SDS011;302;50.206;8.196;2024-02-15T13:12:45;2.42;;;2.22;;
635;SDS011;302;50.206;8.196;2024-02-15T13:15:30;3.03;;;2.80;;
635;SDS011;302;50.206;8.196;2024-02-15T13:18:17;3.13;;;2.53;;
635;SDS011;302;50.206;8.196;2024-02-15T13:21:01;3.53;;;2.45;;
635;SDS011;302;50.206;8.196;2024-02-15T13:23:45;5.45;;;2.83;;
635;SDS011;302;50.206;8.196;2024-02-15T13:26:29;3.33;;;2.60;;
635;SDS011;302;50.206;8.196;2024-02-15T13:29:14;4.15;;;2.70;;
635;SDS011;302;50.206;8.196;2024-02-15T13:31:58;3.13;;;2.30;;
635;SDS011;302;50.206;8.196;2024-02-15T13:34:43;3.45;;;3.08;;
635;SDS011;302;50.206;8.196;2024-02-15T13:37:28;3.35;;;2.28;;
635;SDS011;302;50.206;8.196;2024-02-15T13:40:13;1.95;;;1.80;;
635;SDS011;302;50.206;8.196;2024-02-15T13:43:00;3.55;;;2.30;;
635;SDS011;302;50.206;8.196;2024-02-15T13:45:48;3.13;;;2.22;;
635;SDS011;302;50.206;8.196;2024-02-15T13:48:32;3.38;;;2.10;;
635;SDS011;302;50.206;8.196;2024-02-15T13:51:15;3.17;;;2.17;;
635;SDS011;302;50.206;8.196;2024-02-15T13:53:59;3.45;;;2.30;;
635;SDS011;302;50.206;8.196;2024-02-15T13:56:43;2.60;;;2.00;;
635;SDS011;302;50.206;8.196;2024-02-15T13:59:28;1.95;;;1.70;;
635;SDS011;302;50.206;8.196;2024-02-15T14:02:12;2.50;;;2.10;;
635;SDS011;302;50.206;8.196;2024-02-15T14:04:56;4.28;;;2.30;;
635;SDS011;302;50.206;8.196;2024-02-15T14:07:40;2.67;;;2.45;;
635;SDS011;302;50.206;8.196;2024-02-15T14:10:25;5.28;;;2.25;;
635;SDS011;302;50.206;8.196;2024-02-15T14:13:10;2.90;;;2.05;;
635;SDS011;302;50.206;8.196;2024-02-15T14:15:55;1.52;;;1.42;;
635;SDS011;302;50.206;8.196;2024-02-15T14:18:39;2.78;;;2.35;;
635;SDS011;302;50.206;8.196;2024-02-15T14:21:23;2.20;;;2.00;;
635;SDS011;302;50.206;8.196;2024-02-15T14:24:07;2.13;;;1.83;;
635;SDS011;302;50.206;8.196;2024-02-15T14:26:52;1.75;;;1.45;;
635;SDS011;302;50.206;8.196;2024-02-15T14:29:36;2.65;;;1.60;;
635;SDS011;302;50.206;8.196;2024-02-15T14:32:24;2.60;;;1.52;;
635;SDS011;302;50.206;8.196;2024-02-15T14:35:27;2.83;;;1.95;;
635;SDS011;302;50.206;8.196;2024-02-15T14:38:14;2.10;;;1.90;;
635;SDS011;302;50.206;8.196;2024-02-15T14:41:00;3.25;;;1.80;;
635;SDS011;302;50.206;8.196;2024-02-15T14:43:46;3.55;;;1.77;;
635;SDS011;302;50.206;8.196;2024-02-15T14:46:30;1.98;;;1.75;;
635;SDS011;302;50.206;8.196;2024-02-15T14:49:14;2.20;;;1.98;;
635;SDS011;302;50.206;8.196;2024-02-15T14:51:58;2.15;;;1.85;;
635;SDS011;302;50.206;8.196;2024-02-15T14:54:42;3.28;;;2.22;;
635;SDS011;302;50.206;8.196;2024-02-15T14:57:26;2.97;;;2.65;;
635;SDS011;302;50.206;8.196;2024-02-15T15:00:10;3.80;;;1.73;;
635;SDS011;302;50.206;8.196;2024-02-15T15:02:57;2.50;;;1.73;;
635;SDS011;302;50.206;8.196;2024-02-15T15:05:41;2.50;;;1.75;;
635;SDS011;302;50.206;8.196;2024-02-15T15:08:44;4.00;;;1.90;;
635;SDS011;302;50.206;8.196;2024-02-15T15:11:47;3.80;;;1.70;;
635;SDS011;302;50.206;8.196;2024-02-15T15:14:50;3.50;;;1.85;;
635;SDS011;302;50.206;8.196;2024-02-15T15:17:34;2.55;;;2.10;;
635;SDS011;302;50.206;8.196;2024-02-15T15:20:18;3.15;;;2.00;;
635;SDS011;302;50.206;8.196;2024-02-15T15:23:03;3.67;;;2.65;;
635;SDS011;302;50.206;8.196;2024-02-15T15:25:48;2.90;;;1.73;;
635;SDS011;302;50.206;8.196;2024-02-15T15:28:32;3.60;;;2.50;;
635;SDS011;302;50.206;8.196;2024-02-15T15:31:15;3.30;;;3.00;;
635;SDS011;302;50.206;8.196;2024-02-15T15:33:59;2.42;;;1.85;;
635;SDS011;302;50.206;8.196;2024-02-15T15:36:43;2.20;;;2.00;;
635;SDS011;302;50.206;8.196;2024-02-15T15:39:27;2.35;;;2.15;;
635;SDS011;302;50.206;8.196;2024-02-15T15:42:15;4.50;;;3.47;;
635;SDS011;302;50.206;8.196;2024-02-15T15:44:58;2.60;;;2.40;;
635;SDS011;302;50.206;8.196;2024-02-15T15:47:42;3.42;;;1.83;;
635;SDS011;302;50.206;8.196;2024-02-15T15:50:27;3.17;;;2.22;;
635;SDS011;302;50.206;8.196;2024-02-15T15:53:12;2.75;;;1.67;;
635;SDS011;302;50.206;8.196;2024-02-15T15:55:56;3.58;;;2.05;;
635;SDS011;302;50.206;8.196;2024-02-15T15:58:40;2.45;;;2.25;;
635;SDS011;302;50.206;8.196;2024-02-15T16:01:26;4.00;;;2.58;;
635;SDS011;302;50.206;8.196;2024-02-15T16:04:10;1.73;;;1.63;;
635;SDS011;302;50.206;8.196;2024-02-15T16:06:54;3.88;;;1.50;;
635;SDS011;302;50.206;8.196;2024-02-15T16:09:39;1.90;;;1.50;;
635;SDS011;302;50.206;8.196;2024-02-15T16:12:28;3.63;;;2.10;;
635;SDS011;302;50.206;8.196;2024-02-15T16:15:12;1.65;;;1.50;;
635;SDS011;302;50.206;8.196;2024-02-15T16:17:56;2.50;;;1.30;;
635;SDS011;302;50.206;8.196;2024-02-15T16:20:41;3.72;;;3.30;;
635;SDS011;302;50.206;8.196;2024-02-15T16:23:26;2.53;;;2.42;;
635;SDS011;302;50.206;8.196;2024-02-15T16:26:10;2.35;;;1.80;;
635;SDS011;302;50.206;8.196;2024-02-15T16:28:54;2.03;;;1.67;;
635;SDS011;302;50.206;8.196;2024-02-15T16:31:38;1.40;;;1.20;;
635;SDS011;302;50.206;8.196;2024-02-15T16:34:22;2.70;;;1.58;;
635;SDS011;302;50.206;8.196;2024-02-15T16:37:06;1.55;;;1.27;;
635;SDS011;302;50.206;8.196;2024-02-15T16:39:51;2.17;;;1.98;;
635;SDS011;302;50.206;8.196;2024-02-15T16:42:35;1.83;;;1.63;;
635;SDS011;302;50.206;8.196;2024-02-15T16:45:20;3.42;;;1.45;;
635;SDS011;302;50.206;8.196;2024-02-15T16:48:04;1.77;;;1.30;;
635;SDS011;302;50.206;8.196;2024-02-15T16:50:49;1.85;;;1.45;;
635;SDS011;302;50.206;8.196;2024-02-15T16:53:33;2.58;;;1.73;;
635;SDS011;302;50.206;8.196;2024-02-15T16:56:18;3.08;;;1.92;;
635;SDS011;302;50.206;8.196;2024-02-15T16:59:06;2.13;;;1.80;;
635;SDS011;302;50.206;8.196;2024-02-15T17:01:52;2.10;;;1.60;;
635;SDS011;302;50.206;8.196;2024-02-15T17:04:36;1.75;;;1.65;;
635;SDS011;302;50.206;8.196;2024-02-15T17:07:20;2.42;;;1.83;;
635;SDS011;302;50.206;8.196;2024-02-15T17:10:05;4.05;;;2.00;;
635;SDS011;302;50.206;8.196;2024-02-15T17:12:50;1.63;;;1.38;;
635;SDS011;302;50.206;8.196;2024-02-15T17:15:35;5.15;;;1.60;;
635;SDS011;302;50.206;8.196;2024-02-15T17:18:19;2.53;;;2.17;;
635;SDS011;302;50.206;8.196;2024-02-15T17:21:04;2.35;;;1.38;;
635;SDS011;302;50.206;8.196;2024-02-15T17:23:49;2.17;;;1.70;;
635;SDS011;302;50.206;8.196;2024-02-15T17:26:33;2.35;;;1.50;;
635;SDS011;302;50.206;8.196;2024-02-15T17:29:18;3.05;;;1.38;;
635;SDS011;302;50.206;8.196;2024-02-15T17:32:02;2.08;;;1.40;;
635;SDS011;302;50.206;8.196;2024-02-15T17:34:46;2.55;;;1.45;;
635;SDS011;302;50.206;8.196;2024-02-15T17:37:30;5.07;;;2.88;;
635;SDS011;302;50.206;8.196;2024-02-15T17:40:14;2.42;;;1.70;;
635;SDS011;302;50.206;8.196;2024-02-15T17:42:58;2.28;;;1.50;;
635;SDS011;302;50.206;8.196;2024-02-15T17:45:42;3.45;;;1.75;;
635;SDS011;302;50.206;8.196;2024-02-15T17:48:26;1.92;;;1.15;;